Terminal Aerodrome Forecast
Issued by NWS

Home | Current Version | Previous Version | Text Only | Print | Product List | Glossary On
Versions: 1 2 3 4 5 6 7 8 9 10 11 12 13 14
000
FTUS43 KOAX 042320
TAFCDR
TAF
KCDR 042320Z 0500/0524 07007KT P6SM VCSH BKN060 OVC080
     FM050200 11007KT P6SM OVC050
     FM050600 02007KT 5SM BR OVC008=

USA.gov is the U.S. government's official web portal to all federal, state and local government web resources and services.